createdAt,value
2019-03-25T00:00:15.433Z,1554.14
2019-03-25T00:05:24.418Z,1577.98
2019-03-25T00:10:33.359Z,1587.33
2019-03-25T00:15:42.310Z,1568.52
2019-03-25T00:20:51.222Z,1556.55
2019-03-25T00:26:00.254Z,1999.90
2019-03-25T00:31:09.166Z,1558.96
2019-03-25T00:36:18.143Z,1563.75
2019-03-25T00:41:27.082Z,1544.42
2019-03-25T00:46:36.090Z,1999.90
2019-03-25T00:51:45.071Z,1504.54
2019-03-25T00:56:54.026Z,1484.04
2019-03-25T01:02:03.014Z,1496.89
2019-03-25T01:07:12.005Z,1499.45
2019-03-25T01:12:20.994Z,1502.00
2019-03-25T01:17:30.154Z,1517.17
2019-03-25T01:22:39.143Z,1527.16
2019-03-25T01:27:48.198Z,1532.12
2019-03-25T01:32:57.207Z,1549.29
2019-03-25T01:38:06.166Z,1556.55
2019-03-25T01:43:15.155Z,1551.72
2019-03-25T01:48:24.208Z,1999.90
2019-03-25T01:53:33.190Z,1999.90
2019-03-25T01:58:42.224Z,1582.67
2019-03-25T02:03:51.207Z,1573.27
2019-03-25T02:09:00.204Z,1570.90
2019-03-25T02:14:09.143Z,1570.90
2019-03-25T02:19:18.193Z,1563.75
2019-03-25T02:24:27.115Z,1561.36
2019-03-25T02:29:36.127Z,1999.90
2019-03-25T02:34:45.154Z,1568.52
2019-03-25T02:39:54.167Z,1563.75
2019-03-25T02:45:03.079Z,1999.90
2019-03-25T02:50:12.074Z,1566.14
2019-03-25T02:55:21.039Z,1566.14
2019-03-25T03:00:30.039Z,1577.98
2019-03-25T03:05:38.956Z,1999.90
2019-03-25T03:10:47.975Z,1596.57
2019-03-25T03:15:56.949Z,554.56
2019-03-25T03:21:06.001Z,129.10
2019-03-25T03:26:14.934Z,91.32
2019-03-25T03:31:23.989Z,98.72
2019-03-25T03:36:32.928Z,76.69
2019-03-25T03:41:41.911Z,125.91
2019-03-25T03:46:50.826Z,105.84
2019-03-25T03:51:59.766Z,114.03
2019-03-25T03:57:08.719Z,69.21
2019-03-25T04:02:17.662Z,59.34
2019-03-25T04:07:26.671Z,77.32
2019-03-25T04:12:35.576Z,88.79
2019-03-25T04:17:44.534Z,113.84
2019-03-25T04:22:53.460Z,110.87
2019-03-25T04:28:02.399Z,108.66
2019-03-25T04:33:11.322Z,102.88
2019-03-25T04:38:20.334Z,114.06
2019-03-25T04:43:29.290Z,53.65
2019-03-25T04:48:38.241Z,40.13
2019-03-25T04:53:47.174Z,36.32
2019-03-25T04:58:56.632Z,90.23
2019-03-25T05:04:05.623Z,40.99
2019-03-25T05:09:14.673Z,44.48
2019-03-25T05:14:23.668Z,82.61
2019-03-25T05:19:32.706Z,81.99
2019-03-25T05:24:41.654Z,67.50
2019-03-25T05:29:50.650Z,70.20
2019-03-25T05:34:59.644Z,92.10
2019-03-25T05:40:08.658Z,78.94
2019-03-25T05:45:17.591Z,77.62
2019-03-25T05:50:26.590Z,42.46
2019-03-25T05:55:35.617Z,61.37
2019-03-25T06:00:44.678Z,41.68
2019-03-25T06:05:53.622Z,86.03
2019-03-25T06:11:02.675Z,100.27
2019-03-25T06:16:11.706Z,129.09
2019-03-25T06:21:20.794Z,282.79
2019-03-25T06:26:29.778Z,137.42
2019-03-25T06:31:38.779Z,836.30
2019-03-25T06:36:47.801Z,479.24
2019-03-25T06:41:56.835Z,296.81
2019-03-25T06:47:05.826Z,539.58
2019-03-25T06:52:14.900Z,700.59
2019-03-25T06:57:25.753Z,584.66
2019-03-25T07:02:32.617Z,1117.14
2019-03-25T07:07:41.612Z,1452.73
2019-03-25T07:12:50.658Z,1613.70
2019-03-25T07:17:59.645Z,1590.47
2019-03-25T07:23:08.726Z,1787.19
2019-03-25T07:28:17.728Z,1787.19
2019-03-25T07:33:26.766Z,1913.36
2019-03-25T07:38:35.758Z,1831.63
2019-03-25T07:43:44.754Z,1719.27
2019-03-25T07:48:53.673Z,1999.90
2019-03-25T07:54:02.647Z,1784.09
2019-03-25T07:59:11.585Z,1935.26
2019-03-25T08:04:20.522Z,1999.90
2019-03-25T08:09:29.491Z,1823.31
2019-03-25T08:14:38.522Z,1808.03
2019-03-25T08:19:47.454Z,1999.90
2019-03-25T08:24:56.394Z,1797.80
2019-03-25T08:30:05.354Z,1999.90
2019-03-25T08:35:14.272Z,1912.15
2019-03-25T08:40:23.186Z,1812.31
2019-03-25T08:45:32.206Z,1739.19
2019-03-25T08:50:41.146Z,1538.65
2019-03-25T08:55:50.150Z,1432.77
2019-03-25T09:00:59.106Z,1258.54
2019-03-25T09:06:08.691Z,1352.09
2019-03-25T09:11:17.663Z,1913.89
2019-03-25T09:16:26.642Z,1534.95
2019-03-25T09:21:35.639Z,1732.06
2019-03-25T09:26:44.663Z,1771.38
2019-03-25T09:31:53.646Z,1920.83
2019-03-25T09:37:02.607Z,1714.36
2019-03-25T09:42:11.650Z,1685.32
2019-03-25T09:47:20.657Z,1842.84
2019-03-25T09:52:38.078Z,1691.77
2019-03-25T09:59:32.210Z,11.23
2019-03-25T10:02:07.821Z,7.27
2019-03-25T10:07:06.804Z,8.91
2019-03-25T10:12:15.828Z,3.89
2019-03-25T10:17:24.774Z,4.13
2019-03-25T10:22:33.848Z,5.01
2019-03-25T10:27:42.835Z,8.33
2019-03-25T10:32:51.839Z,8.25
2019-03-25T10:38:00.859Z,5.11
2019-03-25T10:43:09.890Z,10.41
2019-03-25T10:48:18.882Z,9.10
2019-03-25T10:53:28.330Z,5.87
2019-03-25T10:58:37.246Z,4.22
2019-03-25T11:03:46.325Z,6.63
2019-03-25T11:08:55.335Z,5.04
2019-03-25T11:14:04.323Z,9.40
2019-03-25T11:19:13.266Z,6.38
2019-03-25T11:24:22.310Z,6.50
2019-03-25T11:29:31.335Z,3.12
2019-03-25T11:34:40.339Z,10.67
2019-03-25T11:39:49.350Z,4.58
2019-03-25T11:44:58.416Z,3.33
2019-03-25T11:50:07.394Z,7.19
2019-03-25T11:55:17.835Z,5.42
2019-03-25T12:00:24.946Z,7.54
2019-03-25T12:05:34.021Z,4.63
2019-03-25T12:10:43.007Z,3.24
2019-03-25T12:15:52.008Z,4.32
2019-03-25T12:21:01.008Z,5.17
2019-03-25T12:26:10.031Z,6.47
2019-03-25T12:31:19.034Z,7.94
2019-03-25T12:36:28.042Z,2.83
2019-03-25T12:41:37.078Z,6.40
2019-03-25T12:46:46.098Z,3.41
2019-03-25T12:51:55.087Z,6.84
2019-03-25T12:57:04.354Z,4.23
2019-03-25T13:02:13.348Z,6.48
2019-03-25T13:07:22.338Z,5.46
2019-03-25T13:12:31.338Z,7.35
2019-03-25T13:17:40.347Z,4.93
2019-03-25T13:22:49.338Z,4.78
2019-03-25T13:27:58.309Z,3.93
2019-03-25T13:33:07.279Z,5.11
2019-03-25T13:38:16.298Z,3.61
2019-03-25T13:43:25.286Z,9.10
2019-03-25T13:48:34.314Z,5.76
2019-03-25T13:53:43.309Z,4.41
2019-03-25T13:58:52.308Z,8.22
2019-03-25T14:04:01.278Z,8.12
2019-03-25T14:09:10.210Z,7.36
2019-03-25T14:14:19.150Z,5.27
2019-03-25T14:19:29.293Z,5.16
2019-03-25T14:24:36.626Z,7.43
2019-03-25T14:29:45.577Z,4.93
2019-03-25T14:34:54.530Z,5.80
2019-03-25T14:40:03.487Z,6.03
2019-03-25T14:45:12.454Z,12.99
2019-03-25T14:50:21.494Z,6.22
2019-03-25T14:55:30.466Z,5.10
2019-03-25T15:00:39.461Z,6.88
2019-03-25T15:05:48.398Z,9.80
2019-03-25T15:10:57.393Z,7.87
2019-03-25T15:16:06.331Z,5.29
2019-03-25T15:21:15.296Z,3.78
2019-03-25T15:26:24.235Z,9.47
2019-03-25T15:31:33.219Z,6.06
2019-03-25T15:36:42.170Z,12.50
2019-03-25T15:41:51.191Z,9.82
2019-03-25T15:47:00.150Z,9.62
2019-03-25T15:52:09.114Z,7.68
2019-03-25T15:57:18.055Z,8.47
2019-03-25T16:02:27.154Z,10.76
2019-03-25T16:07:36.106Z,12.65
2019-03-25T16:12:45.078Z,8.64
2019-03-25T16:17:54.027Z,6.70
2019-03-25T16:23:03.057Z,7.86
2019-03-25T16:28:11.990Z,7.12
2019-03-25T16:33:21.002Z,8.46
2019-03-25T16:38:29.958Z,9.02
2019-03-25T16:43:38.945Z,4.72
2019-03-25T16:48:47.879Z,5.52
2019-03-25T16:53:56.940Z,8.02
2019-03-25T16:59:05.879Z,6.11
2019-03-25T17:04:14.910Z,12.80
2019-03-25T17:09:23.855Z,13.49
2019-03-25T17:14:32.926Z,8.93
2019-03-25T17:19:41.906Z,11.12
2019-03-25T17:24:50.916Z,9.78
2019-03-25T17:29:59.879Z,4.25
2019-03-25T17:35:08.874Z,14.40
2019-03-25T17:40:17.833Z,10.98
2019-03-25T17:45:26.918Z,5.34
2019-03-25T17:50:35.859Z,6.58
2019-03-25T17:55:44.965Z,13.50
2019-03-25T18:00:53.959Z,3.30
2019-03-25T18:06:02.974Z,6.95
2019-03-25T18:11:12.034Z,4.14
2019-03-25T18:16:21.193Z,4.78
2019-03-25T18:21:30.239Z,9.19
2019-03-25T18:26:39.264Z,7.58
2019-03-25T18:31:48.275Z,13.45
2019-03-25T18:36:57.334Z,5.50
2019-03-25T18:42:06.334Z,4.06
2019-03-25T18:47:15.358Z,11.17
2019-03-25T18:52:24.367Z,9.24
2019-03-25T18:57:33.510Z,4.24
2019-03-25T19:02:42.506Z,3.14
2019-03-25T19:07:51.522Z,4.90
2019-03-25T19:13:00.539Z,10.36
2019-03-25T19:18:09.546Z,10.65
2019-03-25T19:23:18.560Z,11.31
2019-03-25T19:28:27.551Z,10.44
2019-03-25T19:33:36.545Z,8.41
2019-03-25T19:38:45.539Z,11.64
2019-03-25T19:43:54.562Z,8.90
2019-03-25T19:49:03.692Z,5.31
2019-03-25T19:54:15.161Z,8.50
2019-03-25T19:59:14.086Z,12.27
2019-03-25T20:04:23.091Z,12.82
2019-03-25T20:09:32.150Z,18.46
2019-03-25T20:14:41.164Z,8.96
2019-03-25T20:19:51.993Z,7.52
2019-03-25T20:24:50.974Z,11.47
2019-03-25T20:29:59.991Z,10.05
2019-03-25T20:35:09.014Z,7.34
2019-03-25T20:40:18.015Z,7.84
2019-03-25T20:45:27.069Z,11.29
2019-03-25T20:50:36.067Z,9.95
2019-03-25T20:55:45.058Z,9.55
2019-03-25T21:00:54.108Z,10.43
2019-03-25T21:06:03.134Z,3.44
2019-03-25T21:11:12.251Z,8.92
2019-03-25T21:16:24.006Z,10.70
2019-03-25T21:21:23.013Z,3.75
2019-03-25T21:26:32.070Z,10.94
2019-03-25T21:31:41.058Z,7.03
2019-03-25T21:36:50.115Z,6.71
2019-03-25T21:41:59.201Z,7.10
2019-03-25T21:47:08.238Z,11.53
2019-03-25T21:52:17.301Z,3.01
2019-03-25T21:57:26.286Z,2.09
2019-03-25T22:02:35.265Z,6.43
2019-03-25T22:07:44.254Z,5.92
2019-03-25T22:12:53.667Z,8.72
2019-03-25T22:18:02.686Z,7.80
2019-03-25T22:23:11.734Z,5.36
2019-03-25T22:28:20.719Z,3.04
2019-03-25T22:33:29.722Z,5.44
2019-03-25T22:38:38.843Z,6.93
2019-03-25T22:43:47.858Z,6.86
2019-03-25T22:48:56.838Z,8.07
2019-03-25T22:54:05.813Z,4.56
2019-03-25T22:59:14.834Z,10.20
2019-03-25T23:04:23.863Z,5.67
2019-03-25T23:09:32.841Z,6.04
2019-03-25T23:14:41.805Z,7.25
2019-03-25T23:19:50.811Z,12.97
2019-03-25T23:24:59.823Z,4.14
2019-03-25T23:30:08.807Z,6.84
2019-03-25T23:35:17.907Z,7.26
2019-03-25T23:40:26.895Z,3.31
2019-03-25T23:45:41.851Z,7.82
2019-03-25T23:50:40.753Z,7.58
2019-03-25T23:55:49.724Z,9.28
